sensor_id;sensor_type;location;lat;lon;timestamp;temperature;humidity
33881;DHT22;20172;47.530;10.256;2023-02-15T00:01:14;2.00;99.90
33881;DHT22;20172;47.530;10.256;2023-02-15T00:03:39;2.00;99.90
33881;DHT22;20172;47.530;10.256;2023-02-15T00:06:05;1.90;99.90
33881;DHT22;20172;47.530;10.256;2023-02-15T00:08:31;1.80;99.90
33881;DHT22;20172;47.530;10.256;2023-02-15T00:11:03;1.80;99.90
33881;DHT22;20172;47.530;10.256;2023-02-15T00:13:28;1.70;99.90
33881;DHT22;20172;47.530;10.256;2023-02-15T00:15:54;1.70;99.90
33881;DHT22;20172;47.530;10.256;2023-02-15T00:18:19;1.70;99.90
33881;DHT22;20172;47.530;10.256;2023-02-15T00:20:45;1.60;99.90
33881;DHT22;20172;47.530;10.256;2023-02-15T00:23:10;1.50;99.90
33881;DHT22;20172;47.530;10.256;2023-02-15T00:25:36;1.40;99.90
33881;DHT22;20172;47.530;10.256;2023-02-15T00:28:01;1.50;99.90
33881;DHT22;20172;47.530;10.256;2023-02-15T00:30:27;1.50;99.90
33881;DHT22;20172;47.530;10.256;2023-02-15T00:32:52;1.40;99.90
33881;DHT22;20172;47.530;10.256;2023-02-15T00:35:18;1.30;99.90
33881;DHT22;20172;47.530;10.256;2023-02-15T00:37:43;1.50;99.90
33881;DHT22;20172;47.530;10.256;2023-02-15T00:40:09;1.40;99.90
33881;DHT22;20172;47.530;10.256;2023-02-15T00:42:35;1.60;99.90
33881;DHT22;20172;47.530;10.256;2023-02-15T00:45:00;1.50;99.90
33881;DHT22;20172;47.530;10.256;2023-02-15T00:47:26;1.50;99.90
33881;DHT22;20172;47.530;10.256;2023-02-15T00:49:51;1.70;99.90
33881;DHT22;20172;47.530;10.256;2023-02-15T00:52:17;1.50;99.90
33881;DHT22;20172;47.530;10.256;2023-02-15T00:54:42;1.50;99.90
33881;DHT22;20172;47.530;10.256;2023-02-15T00:57:08;1.50;99.90
33881;DHT22;20172;47.530;10.256;2023-02-15T00:59:33;1.50;99.90
33881;DHT22;20172;47.530;10.256;2023-02-15T01:01:59;1.40;99.90
33881;DHT22;20172;47.530;10.256;2023-02-15T01:04:24;1.40;99.90
33881;DHT22;20172;47.530;10.256;2023-02-15T01:06:50;1.30;99.90
33881;DHT22;20172;47.530;10.256;2023-02-15T01:09:15;1.40;99.90
33881;DHT22;20172;47.530;10.256;2023-02-15T01:11:41;1.40;99.90
33881;DHT22;20172;47.530;10.256;2023-02-15T01:14:06;1.20;99.90
33881;DHT22;20172;47.530;10.256;2023-02-15T01:16:32;1.10;99.90
33881;DHT22;20172;47.530;10.256;2023-02-15T01:18:57;1.00;99.90
33881;DHT22;20172;47.530;10.256;2023-02-15T01:21:23;1.00;99.90
33881;DHT22;20172;47.530;10.256;2023-02-15T01:23:49;1.00;99.90
33881;DHT22;20172;47.530;10.256;2023-02-15T01:26:15;0.90;99.90
33881;DHT22;20172;47.530;10.256;2023-02-15T01:28:40;0.90;99.90
33881;DHT22;20172;47.530;10.256;2023-02-15T01:31:11;0.80;99.90
33881;DHT22;20172;47.530;10.256;2023-02-15T01:33:37;0.80;99.90
33881;DHT22;20172;47.530;10.256;2023-02-15T01:36:03;0.90;99.90
33881;DHT22;20172;47.530;10.256;2023-02-15T01:38:29;0.90;99.90
33881;DHT22;20172;47.530;10.256;2023-02-15T01:40:54;0.80;99.90
33881;DHT22;20172;47.530;10.256;2023-02-15T01:43:41;0.70;99.90
33881;DHT22;20172;47.530;10.256;2023-02-15T01:46:06;0.80;99.90
33881;DHT22;20172;47.530;10.256;2023-02-15T01:48:33;0.80;99.90
33881;DHT22;20172;47.530;10.256;2023-02-15T01:50:59;0.80;99.90
33881;DHT22;20172;47.530;10.256;2023-02-15T01:53:33;0.80;99.90
33881;DHT22;20172;47.530;10.256;2023-02-15T01:56:09;0.80;99.90
33881;DHT22;20172;47.530;10.256;2023-02-15T01:58:36;0.80;99.90
33881;DHT22;20172;47.530;10.256;2023-02-15T02:01:02;0.80;99.90
33881;DHT22;20172;47.530;10.256;2023-02-15T02:03:32;0.80;99.90
33881;DHT22;20172;47.530;10.256;2023-02-15T02:05:59;0.80;99.90
33881;DHT22;20172;47.530;10.256;2023-02-15T02:08:24;0.90;99.90
33881;DHT22;20172;47.530;10.256;2023-02-15T02:10:50;0.90;99.90
33881;DHT22;20172;47.530;10.256;2023-02-15T02:13:15;0.80;99.90
33881;DHT22;20172;47.530;10.256;2023-02-15T02:15:47;0.70;99.90
33881;DHT22;20172;47.530;10.256;2023-02-15T02:39:14;0.80;99.90
33881;DHT22;20172;47.530;10.256;2023-02-15T02:44:17;1.00;99.90
33881;DHT22;20172;47.530;10.256;2023-02-15T02:49:09;1.10;99.90
33881;DHT22;20172;47.530;10.256;2023-02-15T02:51:35;1.10;99.90
33881;DHT22;20172;47.530;10.256;2023-02-15T02:54:01;1.10;99.90
33881;DHT22;20172;47.530;10.256;2023-02-15T02:56:32;0.90;99.90
33881;DHT22;20172;47.530;10.256;2023-02-15T02:59:03;0.90;99.90
33881;DHT22;20172;47.530;10.256;2023-02-15T03:04:01;0.90;99.90
33881;DHT22;20172;47.530;10.256;2023-02-15T03:09:03;0.70;99.90
33881;DHT22;20172;47.530;10.256;2023-02-15T03:11:32;0.70;99.90
33881;DHT22;20172;47.530;10.256;2023-02-15T03:13:57;0.60;99.90
33881;DHT22;20172;47.530;10.256;2023-02-15T03:16:23;0.60;99.90
33881;DHT22;20172;47.530;10.256;2023-02-15T03:18:53;0.40;99.90
33881;DHT22;20172;47.530;10.256;2023-02-15T03:21:29;0.40;99.90
33881;DHT22;20172;47.530;10.256;2023-02-15T03:24:12;0.30;99.90
33881;DHT22;20172;47.530;10.256;2023-02-15T03:26:39;0.30;99.90
33881;DHT22;20172;47.530;10.256;2023-02-15T03:29:05;0.30;99.90
33881;DHT22;20172;47.530;10.256;2023-02-15T03:31:32;0.30;99.90
33881;DHT22;20172;47.530;10.256;2023-02-15T03:34:00;0.30;99.90
33881;DHT22;20172;47.530;10.256;2023-02-15T03:39:07;0.20;99.90
33881;DHT22;20172;47.530;10.256;2023-02-15T03:41:37;0.20;99.90
33881;DHT22;20172;47.530;10.256;2023-02-15T03:44:06;0.20;99.90
33881;DHT22;20172;47.530;10.256;2023-02-15T03:46:34;0.10;99.90
33881;DHT22;20172;47.530;10.256;2023-02-15T03:49:09;0.10;99.90
33881;DHT22;20172;47.530;10.256;2023-02-15T03:51:36;0.20;99.90
33881;DHT22;20172;47.530;10.256;2023-02-15T03:57:06;0.30;99.90
33881;DHT22;20172;47.530;10.256;2023-02-15T03:59:51;0.20;99.90
33881;DHT22;20172;47.530;10.256;2023-02-15T04:02:40;0.30;99.90
33881;DHT22;20172;47.530;10.256;2023-02-15T04:05:08;0.30;99.90
33881;DHT22;20172;47.530;10.256;2023-02-15T04:07:33;0.20;99.90
33881;DHT22;20172;47.530;10.256;2023-02-15T04:09:59;0.10;99.90
33881;DHT22;20172;47.530;10.256;2023-02-15T04:12:43;0.30;99.90
33881;DHT22;20172;47.530;10.256;2023-02-15T04:15:11;0.30;99.90
33881;DHT22;20172;47.530;10.256;2023-02-15T04:17:56;0.20;99.90
33881;DHT22;20172;47.530;10.256;2023-02-15T04:20:21;0.30;99.90
33881;DHT22;20172;47.530;10.256;2023-02-15T04:23:06;0.20;99.90
33881;DHT22;20172;47.530;10.256;2023-02-15T04:25:52;0.10;99.90
33881;DHT22;20172;47.530;10.256;2023-02-15T04:28:17;0.00;99.90
33881;DHT22;20172;47.530;10.256;2023-02-15T04:30:43;0.10;99.90
33881;DHT22;20172;47.530;10.256;2023-02-15T04:33:08;0.10;99.90
33881;DHT22;20172;47.530;10.256;2023-02-15T04:35:34;0.00;99.90
33881;DHT22;20172;47.530;10.256;2023-02-15T04:37:59;0.10;99.90
33881;DHT22;20172;47.530;10.256;2023-02-15T04:40:25;0.00;99.90
33881;DHT22;20172;47.530;10.256;2023-02-15T04:42:50;0.00;99.90
33881;DHT22;20172;47.530;10.256;2023-02-15T04:45:16;0.00;99.90
33881;DHT22;20172;47.530;10.256;2023-02-15T04:47:42;-0.10;99.90
33881;DHT22;20172;47.530;10.256;2023-02-15T04:50:07;0.00;99.90
33881;DHT22;20172;47.530;10.256;2023-02-15T04:52:33;0.00;99.90
33881;DHT22;20172;47.530;10.256;2023-02-15T04:54:59;0.00;99.90
33881;DHT22;20172;47.530;10.256;2023-02-15T04:57:24;-0.10;99.90
33881;DHT22;20172;47.530;10.256;2023-02-15T04:59:50;-0.10;99.90
33881;DHT22;20172;47.530;10.256;2023-02-15T05:02:15;-0.20;99.90
33881;DHT22;20172;47.530;10.256;2023-02-15T05:04:41;-0.10;99.90
33881;DHT22;20172;47.530;10.256;2023-02-15T05:07:06;0.00;99.90
33881;DHT22;20172;47.530;10.256;2023-02-15T05:09:32;-0.10;99.90
33881;DHT22;20172;47.530;10.256;2023-02-15T05:11:57;-0.10;99.90
33881;DHT22;20172;47.530;10.256;2023-02-15T05:14:23;0.00;99.90
33881;DHT22;20172;47.530;10.256;2023-02-15T05:16:48;0.00;99.90
33881;DHT22;20172;47.530;10.256;2023-02-15T05:19:14;-0.10;99.90
33881;DHT22;20172;47.530;10.256;2023-02-15T05:21:39;-0.10;99.90
33881;DHT22;20172;47.530;10.256;2023-02-15T05:24:05;-0.10;99.90
33881;DHT22;20172;47.530;10.256;2023-02-15T05:26:50;0.00;99.90
33881;DHT22;20172;47.530;10.256;2023-02-15T05:29:34;0.00;99.90
33881;DHT22;20172;47.530;10.256;2023-02-15T05:32:00;-0.10;99.90
33881;DHT22;20172;47.530;10.256;2023-02-15T05:34:26;0.00;99.90
33881;DHT22;20172;47.530;10.256;2023-02-15T05:36:51;0.10;99.90
33881;DHT22;20172;47.530;10.256;2023-02-15T05:39:17;0.10;99.90
33881;DHT22;20172;47.530;10.256;2023-02-15T05:41:42;0.20;99.90
33881;DHT22;20172;47.530;10.256;2023-02-15T05:44:08;0.40;99.90
33881;DHT22;20172;47.530;10.256;2023-02-15T05:46:33;0.60;99.90
33881;DHT22;20172;47.530;10.256;2023-02-15T05:48:59;0.70;99.90
33881;DHT22;20172;47.530;10.256;2023-02-15T05:51:24;0.60;99.90
33881;DHT22;20172;47.530;10.256;2023-02-15T05:53:50;0.40;99.90
33881;DHT22;20172;47.530;10.256;2023-02-15T05:56:15;0.20;99.90
33881;DHT22;20172;47.530;10.256;2023-02-15T05:58:41;0.10;99.90
33881;DHT22;20172;47.530;10.256;2023-02-15T06:01:08;0.00;99.90
33881;DHT22;20172;47.530;10.256;2023-02-15T06:03:34;-0.10;99.90
33881;DHT22;20172;47.530;10.256;2023-02-15T06:05:59;-0.20;99.90
33881;DHT22;20172;47.530;10.256;2023-02-15T06:08:25;-0.30;99.90
33881;DHT22;20172;47.530;10.256;2023-02-15T06:10:50;-0.20;99.90
33881;DHT22;20172;47.530;10.256;2023-02-15T06:13:16;-0.20;99.90
33881;DHT22;20172;47.530;10.256;2023-02-15T06:15:41;-0.20;99.90
33881;DHT22;20172;47.530;10.256;2023-02-15T06:18:07;-0.20;99.90
33881;DHT22;20172;47.530;10.256;2023-02-15T06:20:32;-0.30;99.90
33881;DHT22;20172;47.530;10.256;2023-02-15T06:22:58;-0.30;99.90
33881;DHT22;20172;47.530;10.256;2023-02-15T06:25:23;-0.10;99.90
33881;DHT22;20172;47.530;10.256;2023-02-15T06:27:49;-0.20;99.90
33881;DHT22;20172;47.530;10.256;2023-02-15T06:30:15;-0.10;99.90
33881;DHT22;20172;47.530;10.256;2023-02-15T06:32:40;-0.10;99.90
33881;DHT22;20172;47.530;10.256;2023-02-15T06:35:23;-0.10;99.90
33881;DHT22;20172;47.530;10.256;2023-02-15T06:37:49;0.00;99.90
33881;DHT22;20172;47.530;10.256;2023-02-15T06:40:15;0.00;99.90
33881;DHT22;20172;47.530;10.256;2023-02-15T06:42:41;0.00;99.90
33881;DHT22;20172;47.530;10.256;2023-02-15T06:45:06;0.00;99.90
33881;DHT22;20172;47.530;10.256;2023-02-15T06:47:32;0.10;99.90
33881;DHT22;20172;47.530;10.256;2023-02-15T06:49:57;0.00;99.90
33881;DHT22;20172;47.530;10.256;2023-02-15T06:52:23;0.00;99.90
33881;DHT22;20172;47.530;10.256;2023-02-15T06:54:48;0.10;99.90
33881;DHT22;20172;47.530;10.256;2023-02-15T06:57:14;0.20;99.90
33881;DHT22;20172;47.530;10.256;2023-02-15T06:59:40;0.30;99.90
33881;DHT22;20172;47.530;10.256;2023-02-15T07:02:05;0.30;99.90
33881;DHT22;20172;47.530;10.256;2023-02-15T07:04:31;0.30;99.90
33881;DHT22;20172;47.530;10.256;2023-02-15T07:06:56;0.20;99.90
33881;DHT22;20172;47.530;10.256;2023-02-15T07:09:22;0.30;99.90
33881;DHT22;20172;47.530;10.256;2023-02-15T07:11:47;0.20;99.90
33881;DHT22;20172;47.530;10.256;2023-02-15T07:14:32;0.30;99.90
33881;DHT22;20172;47.530;10.256;2023-02-15T07:16:57;0.40;99.90
33881;DHT22;20172;47.530;10.256;2023-02-15T07:19:23;0.60;99.90
33881;DHT22;20172;47.530;10.256;2023-02-15T07:21:48;0.80;99.90
33881;DHT22;20172;47.530;10.256;2023-02-15T07:24:14;1.10;99.90
33881;DHT22;20172;47.530;10.256;2023-02-15T07:26:39;1.40;99.90
33881;DHT22;20172;47.530;10.256;2023-02-15T07:29:05;1.70;99.90
33881;DHT22;20172;47.530;10.256;2023-02-15T07:31:30;2.00;99.90
33881;DHT22;20172;47.530;10.256;2023-02-15T07:33:56;2.10;99.90
33881;DHT22;20172;47.530;10.256;2023-02-15T07:36:21;2.50;99.90
33881;DHT22;20172;47.530;10.256;2023-02-15T07:38:47;3.00;99.90
33881;DHT22;20172;47.530;10.256;2023-02-15T07:41:13;3.50;99.90
33881;DHT22;20172;47.530;10.256;2023-02-15T07:43:40;3.90;99.90
33881;DHT22;20172;47.530;10.256;2023-02-15T07:46:07;4.50;99.90
33881;DHT22;20172;47.530;10.256;2023-02-15T07:48:33;5.40;99.90
33881;DHT22;20172;47.530;10.256;2023-02-15T07:50:59;6.10;99.90
33881;DHT22;20172;47.530;10.256;2023-02-15T07:53:25;6.70;99.90
33881;DHT22;20172;47.530;10.256;2023-02-15T07:55:51;6.90;99.90
33881;DHT22;20172;47.530;10.256;2023-02-15T07:58:23;7.10;99.90
33881;DHT22;20172;47.530;10.256;2023-02-15T08:01:08;7.70;99.90
33881;DHT22;20172;47.530;10.256;2023-02-15T08:03:34;8.50;97.40
33881;DHT22;20172;47.530;10.256;2023-02-15T08:06:08;9.10;97.00
33881;DHT22;20172;47.530;10.256;2023-02-15T08:08:36;9.80;94.60
33881;DHT22;20172;47.530;10.256;2023-02-15T08:13:47;11.30;88.80
33881;DHT22;20172;47.530;10.256;2023-02-15T08:16:29;12.00;85.60
33881;DHT22;20172;47.530;10.256;2023-02-15T08:18:55;12.60;80.90
33881;DHT22;20172;47.530;10.256;2023-02-15T08:21:21;13.00;76.80
33881;DHT22;20172;47.530;10.256;2023-02-15T08:23:47;12.80;74.10
33881;DHT22;20172;47.530;10.256;2023-02-15T08:26:12;12.20;73.40
33881;DHT22;20172;47.530;10.256;2023-02-15T08:28:47;11.30;71.40
33881;DHT22;20172;47.530;10.256;2023-02-15T08:31:14;10.20;74.00
33881;DHT22;20172;47.530;10.256;2023-02-15T08:33:40;9.50;77.90
33881;DHT22;20172;47.530;10.256;2023-02-15T08:36:16;8.70;80.10
33881;DHT22;20172;47.530;10.256;2023-02-15T08:38:42;8.10;82.00
33881;DHT22;20172;47.530;10.256;2023-02-15T08:41:16;7.70;83.90
33881;DHT22;20172;47.530;10.256;2023-02-15T08:43:42;7.50;85.60
33881;DHT22;20172;47.530;10.256;2023-02-15T08:46:08;7.20;89.20
33881;DHT22;20172;47.530;10.256;2023-02-15T08:48:34;7.20;90.40
33881;DHT22;20172;47.530;10.256;2023-02-15T08:51:07;7.10;90.80
33881;DHT22;20172;47.530;10.256;2023-02-15T08:56:30;7.20;91.90
33881;DHT22;20172;47.530;10.256;2023-02-15T08:58:57;7.50;92.00
33881;DHT22;20172;47.530;10.256;2023-02-15T09:01:23;7.50;92.00
33881;DHT22;20172;47.530;10.256;2023-02-15T09:03:51;7.70;91.90
33881;DHT22;20172;47.530;10.256;2023-02-15T09:06:20;8.00;90.80
33881;DHT22;20172;47.530;10.256;2023-02-15T09:08:46;8.30;90.40
33881;DHT22;20172;47.530;10.256;2023-02-15T09:11:13;8.40;90.60
33881;DHT22;20172;47.530;10.256;2023-02-15T09:13:39;8.80;90.60
33881;DHT22;20172;47.530;10.256;2023-02-15T09:16:05;9.10;90.60
33881;DHT22;20172;47.530;10.256;2023-02-15T09:18:32;9.50;90.60
33881;DHT22;20172;47.530;10.256;2023-02-15T09:21:04;10.30;88.70
33881;DHT22;20172;47.530;10.256;2023-02-15T09:23:30;11.20;85.60
33881;DHT22;20172;47.530;10.256;2023-02-15T09:25:56;12.20;82.30
33881;DHT22;20172;47.530;10.256;2023-02-15T09:28:21;13.10;80.40
33881;DHT22;20172;47.530;10.256;2023-02-15T09:30:47;14.00;77.90
33881;DHT22;20172;47.530;10.256;2023-02-15T09:33:12;15.00;74.50
33881;DHT22;20172;47.530;10.256;2023-02-15T09:35:38;16.20;72.00
33881;DHT22;20172;47.530;10.256;2023-02-15T09:38:03;17.30;68.50
33881;DHT22;20172;47.530;10.256;2023-02-15T09:40:30;18.50;62.70
33881;DHT22;20172;47.530;10.256;2023-02-15T09:43:04;19.50;59.40
33881;DHT22;20172;47.530;10.256;2023-02-15T09:45:46;20.60;56.40
33881;DHT22;20172;47.530;10.256;2023-02-15T09:50:49;22.00;53.40
33881;DHT22;20172;47.530;10.256;2023-02-15T10:03:41;26.50;41.50
33881;DHT22;20172;47.530;10.256;2023-02-15T10:09:10;28.30;38.40
33881;DHT22;20172;47.530;10.256;2023-02-15T10:19:21;30.20;35.10
33881;DHT22;20172;47.530;10.256;2023-02-15T10:24:34;31.30;34.00
33881;DHT22;20172;47.530;10.256;2023-02-15T10:27:07;31.80;33.90
33881;DHT22;20172;47.530;10.256;2023-02-15T10:29:37;32.50;32.70
33881;DHT22;20172;47.530;10.256;2023-02-15T10:45:06;33.70;30.80
33881;DHT22;20172;47.530;10.256;2023-02-15T10:55:28;35.90;29.00
33881;DHT22;20172;47.530;10.256;2023-02-15T11:08:09;36.70;27.20
33881;DHT22;20172;47.530;10.256;2023-02-15T11:10:36;36.90;27.10
33881;DHT22;20172;47.530;10.256;2023-02-15T11:13:05;37.50;26.80
33881;DHT22;20172;47.530;10.256;2023-02-15T11:15:35;37.60;27.00
33881;DHT22;20172;47.530;10.256;2023-02-15T11:18:03;38.00;26.20
33881;DHT22;20172;47.530;10.256;2023-02-15T11:20:33;38.40;26.10
33881;DHT22;20172;47.530;10.256;2023-02-15T11:23:01;38.80;26.20
33881;DHT22;20172;47.530;10.256;2023-02-15T11:25:31;38.60;26.20
33881;DHT22;20172;47.530;10.256;2023-02-15T11:27:57;38.60;26.00
33881;DHT22;20172;47.530;10.256;2023-02-15T11:33:17;38.30;25.90
33881;DHT22;20172;47.530;10.256;2023-02-15T11:35:48;38.50;25.60
33881;DHT22;20172;47.530;10.256;2023-02-15T11:38:17;39.00;25.20
33881;DHT22;20172;47.530;10.256;2023-02-15T11:40:48;39.40;25.00
33881;DHT22;20172;47.530;10.256;2023-02-15T11:43:21;39.70;24.70
33881;DHT22;20172;47.530;10.256;2023-02-15T11:45:50;40.20;24.60
33881;DHT22;20172;47.530;10.256;2023-02-15T11:48:15;40.60;24.30
33881;DHT22;20172;47.530;10.256;2023-02-15T11:50:43;40.50;24.00
33881;DHT22;20172;47.530;10.256;2023-02-15T11:53:13;40.50;23.90
33881;DHT22;20172;47.530;10.256;2023-02-15T11:55:39;40.60;23.90
33881;DHT22;20172;47.530;10.256;2023-02-15T12:00:49;39.90;23.70
33881;DHT22;20172;47.530;10.256;2023-02-15T12:03:21;40.00;24.00
33881;DHT22;20172;47.530;10.256;2023-02-15T12:05:49;40.10;23.80
33881;DHT22;20172;47.530;10.256;2023-02-15T12:08:19;40.10;23.60
33881;DHT22;20172;47.530;10.256;2023-02-15T12:13:17;40.30;23.70
33881;DHT22;20172;47.530;10.256;2023-02-15T12:15:44;40.70;23.70
33881;DHT22;20172;47.530;10.256;2023-02-15T12:18:19;41.00;24.00
33881;DHT22;20172;47.530;10.256;2023-02-15T12:20:45;41.30;23.40
33881;DHT22;20172;47.530;10.256;2023-02-15T12:23:12;40.90;23.50
33881;DHT22;20172;47.530;10.256;2023-02-15T12:25:42;41.00;23.50
33881;DHT22;20172;47.530;10.256;2023-02-15T12:30:49;41.70;23.10
33881;DHT22;20172;47.530;10.256;2023-02-15T12:33:34;42.00;22.60
33881;DHT22;20172;47.530;10.256;2023-02-15T12:36:02;42.10;22.70
33881;DHT22;20172;47.530;10.256;2023-02-15T12:38:29;42.20;22.80
33881;DHT22;20172;47.530;10.256;2023-02-15T12:40:59;42.30;22.80
33881;DHT22;20172;47.530;10.256;2023-02-15T12:43:30;42.50;22.50
33881;DHT22;20172;47.530;10.256;2023-02-15T12:48:41;42.40;22.40
33881;DHT22;20172;47.530;10.256;2023-02-15T12:51:07;42.60;22.50
33881;DHT22;20172;47.530;10.256;2023-02-15T12:53:34;43.00;22.50
33881;DHT22;20172;47.530;10.256;2023-02-15T12:56:04;43.20;22.20
33881;DHT22;20172;47.530;10.256;2023-02-15T12:58:31;43.40;21.90
33881;DHT22;20172;47.530;10.256;2023-02-15T13:01:11;43.50;22.10
33881;DHT22;20172;47.530;10.256;2023-02-15T13:03:38;43.60;22.00
33881;DHT22;20172;47.530;10.256;2023-02-15T13:06:04;43.60;21.80
33881;DHT22;20172;47.530;10.256;2023-02-15T13:08:38;44.00;21.50
33881;DHT22;20172;47.530;10.256;2023-02-15T13:13:31;44.10;21.60
33881;DHT22;20172;47.530;10.256;2023-02-15T13:16:15;44.40;21.40
33881;DHT22;20172;47.530;10.256;2023-02-15T13:18:42;44.50;21.60
33881;DHT22;20172;47.530;10.256;2023-02-15T13:21:19;44.60;21.60
33881;DHT22;20172;47.530;10.256;2023-02-15T13:23:49;45.30;21.60
33881;DHT22;20172;47.530;10.256;2023-02-15T13:26:17;45.90;21.00
33881;DHT22;20172;47.530;10.256;2023-02-15T13:28:48;46.20;20.80
33881;DHT22;20172;47.530;10.256;2023-02-15T13:31:15;46.30;20.60
33881;DHT22;20172;47.530;10.256;2023-02-15T13:33:44;46.50;20.80
33881;DHT22;20172;47.530;10.256;2023-02-15T13:41:33;46.10;20.70
33881;DHT22;20172;47.530;10.256;2023-02-15T13:52:01;45.80;20.60
33881;DHT22;20172;47.530;10.256;2023-02-15T14:02:40;45.80;20.40
33881;DHT22;20172;47.530;10.256;2023-02-15T14:18:12;45.90;20.40
33881;DHT22;20172;47.530;10.256;2023-02-15T14:20:42;45.50;20.40
33881;DHT22;20172;47.530;10.256;2023-02-15T14:31:09;45.00;20.30
33881;DHT22;20172;47.530;10.256;2023-02-15T14:36:01;44.90;20.80
33881;DHT22;20172;47.530;10.256;2023-02-15T14:48:49;43.30;22.30
33881;DHT22;20172;47.530;10.256;2023-02-15T14:54:00;42.40;22.50
33881;DHT22;20172;47.530;10.256;2023-02-15T14:56:25;41.70;22.40
33881;DHT22;20172;47.530;10.256;2023-02-15T15:01:24;40.70;22.80
33881;DHT22;20172;47.530;10.256;2023-02-15T15:03:51;40.90;22.90
33881;DHT22;20172;47.530;10.256;2023-02-15T15:06:26;40.80;22.80
33881;DHT22;20172;47.530;10.256;2023-02-15T15:08:52;40.60;22.80
33881;DHT22;20172;47.530;10.256;2023-02-15T15:13:55;40.00;22.90
33881;DHT22;20172;47.530;10.256;2023-02-15T15:16:27;39.20;23.10
33881;DHT22;20172;47.530;10.256;2023-02-15T15:18:53;38.40;23.20
33881;DHT22;20172;47.530;10.256;2023-02-15T15:24:05;36.90;23.90
33881;DHT22;20172;47.530;10.256;2023-02-15T15:26:31;36.60;24.00
33881;DHT22;20172;47.530;10.256;2023-02-15T15:29:06;36.20;24.00
33881;DHT22;20172;47.530;10.256;2023-02-15T15:31:53;35.60;24.20
33881;DHT22;20172;47.530;10.256;2023-02-15T15:50:04;20.80;33.40
33881;DHT22;20172;47.530;10.256;2023-02-15T15:52:30;19.50;35.10
33881;DHT22;20172;47.530;10.256;2023-02-15T15:55:04;18.60;36.60
33881;DHT22;20172;47.530;10.256;2023-02-15T15:59:56;17.10;38.60
33881;DHT22;20172;47.530;10.256;2023-02-15T16:02:25;16.50;39.60
33881;DHT22;20172;47.530;10.256;2023-02-15T16:04:50;16.10;40.70
33881;DHT22;20172;47.530;10.256;2023-02-15T16:09:53;15.30;41.70
33881;DHT22;20172;47.530;10.256;2023-02-15T16:12:18;15.00;42.20
33881;DHT22;20172;47.530;10.256;2023-02-15T16:14:45;14.60;43.10
33881;DHT22;20172;47.530;10.256;2023-02-15T16:17:25;14.30;43.50
33881;DHT22;20172;47.530;10.256;2023-02-15T16:19:59;14.00;44.10
33881;DHT22;20172;47.530;10.256;2023-02-15T16:22:26;13.80;44.60
33881;DHT22;20172;47.530;10.256;2023-02-15T16:32:46;12.60;46.70
33881;DHT22;20172;47.530;10.256;2023-02-15T16:35:16;12.40;46.90
33881;DHT22;20172;47.530;10.256;2023-02-15T16:37:42;12.10;47.40
33881;DHT22;20172;47.530;10.256;2023-02-15T16:40:24;11.90;47.80
33881;DHT22;20172;47.530;10.256;2023-02-15T16:42:51;11.80;48.30
33881;DHT22;20172;47.530;10.256;2023-02-15T16:45:17;11.60;48.90
33881;DHT22;20172;47.530;10.256;2023-02-15T16:47:45;11.30;49.30
33881;DHT22;20172;47.530;10.256;2023-02-15T16:50:25;11.10;49.70
33881;DHT22;20172;47.530;10.256;2023-02-15T16:52:52;10.90;50.00
33881;DHT22;20172;47.530;10.256;2023-02-15T16:55:19;10.70;50.30
33881;DHT22;20172;47.530;10.256;2023-02-15T16:57:46;10.60;50.50
33881;DHT22;20172;47.530;10.256;2023-02-15T17:00:18;10.60;50.70
33881;DHT22;20172;47.530;10.256;2023-02-15T17:02:53;10.50;51.10
33881;DHT22;20172;47.530;10.256;2023-02-15T17:05:20;10.40;51.40
33881;DHT22;20172;47.530;10.256;2023-02-15T17:10:42;10.10;52.30
33881;DHT22;20172;47.530;10.256;2023-02-15T17:13:13;10.00;52.50
33881;DHT22;20172;47.530;10.256;2023-02-15T17:20:39;9.60;54.10
33881;DHT22;20172;47.530;10.256;2023-02-15T17:23:15;9.50;54.50
33881;DHT22;20172;47.530;10.256;2023-02-15T17:25:43;9.40;54.90
33881;DHT22;20172;47.530;10.256;2023-02-15T17:28:15;9.30;54.90
33881;DHT22;20172;47.530;10.256;2023-02-15T17:30:42;9.20;55.10
33881;DHT22;20172;47.530;10.256;2023-02-15T17:33:19;9.10;55.40
33881;DHT22;20172;47.530;10.256;2023-02-15T17:35:45;9.00;55.60
33881;DHT22;20172;47.530;10.256;2023-02-15T17:38:26;8.90;56.00
33881;DHT22;20172;47.530;10.256;2023-02-15T17:40:52;8.80;56.30
33881;DHT22;20172;47.530;10.256;2023-02-15T17:43:17;8.80;56.70
33881;DHT22;20172;47.530;10.256;2023-02-15T17:45:49;8.70;56.80
33881;DHT22;20172;47.530;10.256;2023-02-15T17:48:20;8.60;57.00
33881;DHT22;20172;47.530;10.256;2023-02-15T17:50:46;8.50;57.40
33881;DHT22;20172;47.530;10.256;2023-02-15T17:53:12;8.40;57.60
33881;DHT22;20172;47.530;10.256;2023-02-15T17:55:38;8.30;57.60
33881;DHT22;20172;47.530;10.256;2023-02-15T17:58:14;8.20;58.10
33881;DHT22;20172;47.530;10.256;2023-02-15T18:00:44;8.10;58.40
33881;DHT22;20172;47.530;10.256;2023-02-15T18:03:31;8.00;58.30
33881;DHT22;20172;47.530;10.256;2023-02-15T18:06:18;8.00;58.30
33881;DHT22;20172;47.530;10.256;2023-02-15T18:09:02;8.10;58.20
33881;DHT22;20172;47.530;10.256;2023-02-15T18:11:46;8.00;58.40
33881;DHT22;20172;47.530;10.256;2023-02-15T18:14:13;8.00;58.40
33881;DHT22;20172;47.530;10.256;2023-02-15T18:16:39;7.90;59.00
33881;DHT22;20172;47.530;10.256;2023-02-15T18:22:04;7.80;59.50
33881;DHT22;20172;47.530;10.256;2023-02-15T18:24:29;7.80;59.50
33881;DHT22;20172;47.530;10.256;2023-02-15T18:26:55;7.70;59.70
33881;DHT22;20172;47.530;10.256;2023-02-15T18:29:20;7.70;59.90
33881;DHT22;20172;47.530;10.256;2023-02-15T18:31:47;7.50;60.20
33881;DHT22;20172;47.530;10.256;2023-02-15T18:36:47;7.40;60.80
33881;DHT22;20172;47.530;10.256;2023-02-15T18:39:34;7.40;61.00
33881;DHT22;20172;47.530;10.256;2023-02-15T18:42:00;7.40;60.60
33881;DHT22;20172;47.530;10.256;2023-02-15T18:44:26;7.40;60.90
33881;DHT22;20172;47.530;10.256;2023-02-15T18:46:52;7.30;61.20
33881;DHT22;20172;47.530;10.256;2023-02-15T18:49:17;7.30;61.50
33881;DHT22;20172;47.530;10.256;2023-02-15T18:51:43;7.20;61.80
33881;DHT22;20172;47.530;10.256;2023-02-15T18:54:16;7.00;63.30
33881;DHT22;20172;47.530;10.256;2023-02-15T18:56:41;6.80;63.80
33881;DHT22;20172;47.530;10.256;2023-02-15T18:59:12;6.70;64.30
33881;DHT22;20172;47.530;10.256;2023-02-15T19:01:38;6.60;64.90
33881;DHT22;20172;47.530;10.256;2023-02-15T19:04:03;6.50;65.20
33881;DHT22;20172;47.530;10.256;2023-02-15T19:06:29;6.50;65.00
33881;DHT22;20172;47.530;10.256;2023-02-15T19:08:54;6.60;65.20
33881;DHT22;20172;47.530;10.256;2023-02-15T19:11:21;6.50;65.30
33881;DHT22;20172;47.530;10.256;2023-02-15T19:13:47;6.50;66.00
33881;DHT22;20172;47.530;10.256;2023-02-15T19:16:35;6.50;65.60